Time;durP1;ratioP1;P1;durP2;ratioP2;P2;SDS_P1;SDS_P2;PMS_P1;PMS_P2;Temp;Humidity;BMP_temperature;BMP_pressure;BME280_temperature;BME280_humidity;BME280_pressure;Samples;Min_cycle;Max_cycle;Signal;HPM_P1;HPM_P2
2023/01/23 00:02:33;;;;;;;26.70;15.30;;;;;;;1.59;88.21;102285.15;83180;1260;3011566;-75
2023/01/23 00:05:13;;;;;;;21.60;13.00;;;;;;;1.56;87.97;102282.15;83293;1259;3011334;-74
2023/01/23 00:07:45;;;;;;;22.90;14.40;;;;;;;1.56;88.15;102282.84;82389;1260;3025882;-74
2023/01/23 00:10:20;;;;;;;23.00;14.80;;;;;;;1.58;87.99;102283.77;83849;1254;3011466;-74
2023/01/23 00:12:53;;;;;;;24.50;14.70;;;;;;;1.56;87.94;102288.52;82402;1254;3024642;-76
2023/01/23 00:15:27;;;;;;;24.60;15.20;;;;;;;1.54;88.09;102291.02;83865;1259;3011620;-76
2023/01/23 00:18:03;;;;;;;23.80;14.80;;;;;;;1.51;88.13;102293.36;82492;1257;3026453;-76
2023/01/23 00:20:37;;;;;;;21.10;13.50;;;;;;;1.52;88.17;102291.84;83926;1259;3013133;-78
2023/01/23 00:23:09;;;;;;;23.70;14.50;;;;;;;1.54;88.34;102291.73;82550;1254;3026505;-78
2023/01/23 00:25:44;;;;;;;25.70;14.00;;;;;;;1.58;88.52;102297.14;83950;1259;3011647;-79
2023/01/23 00:28:19;;;;;;;23.40;14.20;;;;;;;1.57;88.28;102303.33;82573;1259;3025826;-78
2023/01/23 00:30:50;;;;;;;24.60;14.70;;;;;;;1.49;88.15;102309.13;83937;1259;3011804;-78
2023/01/23 00:33:24;;;;;;;23.10;13.10;;;;;;;1.43;88.19;102306.19;82464;1260;3025614;-78
2023/01/23 00:35:59;;;;;;;22.90;14.10;;;;;;;1.42;88.26;102308.05;83723;1260;3011540;-75
2023/01/23 00:38:31;;;;;;;25.20;15.20;;;;;;;1.43;88.52;102308.09;82484;1255;3026301;-75
2023/01/23 00:41:02;;;;;;;25.20;15.30;;;;;;;1.45;88.62;102306.77;83736;1261;3013475;-75
2023/01/23 00:43:35;;;;;;;23.10;14.70;;;;;;;1.44;88.72;102301.23;82557;1254;3026409;-75
2023/01/23 00:46:06;;;;;;;25.00;14.40;;;;;;;1.46;88.80;102299.22;83857;1259;3011687;-77
2023/01/23 00:48:38;;;;;;;22.90;15.10;;;;;;;1.46;88.69;102299.73;82583;1259;3024984;-76
2023/01/23 00:51:09;;;;;;;24.40;14.20;;;;;;;1.47;88.71;102294.61;83914;1270;3011498;-78
2023/01/23 00:53:42;;;;;;;25.50;15.50;;;;;;;1.45;88.84;102300.06;82552;1259;3026229;-78
2023/01/23 00:56:13;;;;;;;26.60;14.50;;;;;;;1.48;89.05;102299.30;83773;1255;3011564;-78
2023/01/23 00:58:45;;;;;;;23.80;14.40;;;;;;;1.45;88.85;102299.91;82594;1258;3026904;-78
2023/01/23 01:01:16;;;;;;;22.60;13.40;;;;;;;1.44;88.82;102306.21;83894;1259;3011373;-75
2023/01/23 01:03:49;;;;;;;21.60;13.80;;;;;;;1.45;89.11;102310.21;82530;1260;3025457;-74
2023/01/23 01:06:20;;;;;;;23.30;15.10;;;;;;;1.47;88.99;102309.40;83853;1255;3011616;-75
2023/01/23 01:08:53;;;;;;;24.90;14.50;;;;;;;1.47;89.18;102310.44;82423;1256;3028571;-76
2023/01/23 01:11:25;;;;;;;25.70;14.00;;;;;;;1.50;89.12;102315.85;83898;1259;3013177;-76
2023/01/23 01:14:00;;;;;;;22.70;14.40;;;;;;;1.51;89.16;102313.48;82561;1259;3026367;-75
2023/01/23 01:16:36;;;;;;;24.10;15.10;;;;;;;1.52;89.01;102313.00;82561;1259;3026044;-76
2023/01/23 01:19:10;;;;;;;23.10;14.00;;;;;;;1.53;89.04;102315.78;82534;1259;3026837;-76
2023/01/23 01:21:45;;;;;;;25.90;15.20;;;;;;;1.55;89.07;102319.27;83359;1261;3013293;-78
2023/01/23 01:24:16;;;;;;;24.00;14.10;;;;;;;1.53;89.12;102315.62;83882;1254;3011609;-75
2023/01/23 01:26:49;;;;;;;23.10;14.00;;;;;;;1.54;89.07;102320.63;82555;1254;3026028;-75
2023/01/23 01:29:20;;;;;;;23.30;13.60;;;;;;;1.56;89.12;102324.45;83903;1259;3011354;-77
2023/01/23 01:31:52;;;;;;;24.00;14.40;;;;;;;1.57;89.02;102325.68;82558;1259;3024992;-79
2023/01/23 01:34:30;;;;;;;26.60;15.90;;;;;;;1.55;89.04;102322.20;82538;1259;3025386;-77
2023/01/23 01:37:03;;;;;;;23.00;13.70;;;;;;;1.54;89.08;102324.41;83294;1259;3011354;-76
2023/01/23 01:39:35;;;;;;;27.40;14.50;;;;;;;1.55;89.21;102326.85;83902;1259;3011075;-77
2023/01/23 01:42:07;;;;;;;22.80;14.50;;;;;;;1.55;89.05;102331.15;82576;1259;3025859;-76
2023/01/23 01:44:55;;;;;;;25.80;15.00;;;;;;;1.56;89.13;102336.86;83882;1259;3011570;-75
2023/01/23 01:47:27;;;;;;;24.10;15.20;;;;;;;1.58;89.14;102338.98;82537;1254;3026218;-74
2023/01/23 01:50:01;;;;;;;23.60;13.00;;;;;;;1.58;89.14;102340.52;83876;1254;3011828;-76
2023/01/23 01:52:33;;;;;;;25.60;14.00;;;;;;;1.57;89.01;102338.95;82578;1254;3025992;-77
2023/01/23 01:55:07;;;;;;;24.40;14.80;;;;;;;1.56;88.89;102336.66;83892;1254;3011473;-76
2023/01/23 01:57:41;;;;;;;29.80;14.90;;;;;;;1.53;89.04;102340.23;82589;1254;3024597;-76
2023/01/23 02:00:18;;;;;;;26.90;14.90;;;;;;;1.53;89.06;102344.70;82437;1261;3026857;-76
2023/01/23 02:02:57;;;;;;;24.80;14.00;;;;;;;1.57;89.36;102347.35;83330;1254;3011436;-76
2023/01/23 02:05:40;;;;;;;24.40;14.20;;;;;;;1.57;89.21;102345.66;82595;1259;3025899;-78
2023/01/23 02:08:15;;;;;;;25.80;14.70;;;;;;;1.57;89.18;102348.92;82618;1255;3027119;-77
2023/01/23 02:10:50;;;;;;;24.10;14.60;;;;;;;1.57;89.13;102352.71;83321;1268;3013160;-75
2023/01/23 02:13:29;;;;;;;24.00;14.70;;;;;;;1.55;89.21;102351.63;83968;1253;3011587;-75
2023/01/23 02:16:07;;;;;;;27.40;14.60;;;;;;;1.53;89.21;102352.07;82629;1276;3026179;-75
2023/01/23 02:18:46;;;;;;;24.60;14.00;;;;;;;1.51;89.15;102355.30;82609;1257;3026418;-75
2023/01/23 02:21:23;;;;;;;23.40;14.30;;;;;;;1.49;89.15;102362.27;82500;1257;3026379;-75
2023/01/23 02:24:14;;;;;;;26.50;15.40;;;;;;;1.51;89.12;102371.08;82561;1255;3026019;-75
2023/01/23 02:26:47;;;;;;;25.30;15.20;;;;;;;1.48;89.26;102370.46;82544;1254;3026136;-75
2023/01/23 02:29:19;;;;;;;24.70;14.50;;;;;;;1.50;89.52;102368.66;83891;1256;3011622;-78
2023/01/23 02:31:51;;;;;;;23.50;13.50;;;;;;;1.51;89.46;102366.13;82456;1259;3025773;-78
2023/01/23 02:34:24;;;;;;;24.60;14.70;;;;;;;1.53;89.58;102362.05;83879;1254;3011359;-77
2023/01/23 02:36:59;;;;;;;24.20;14.60;;;;;;;1.55;89.55;102354.54;82563;1256;3026356;-77
2023/01/23 02:39:31;;;;;;;27.50;14.50;;;;;;;1.58;89.66;102350.47;83755;1260;3011633;-77
2023/01/23 02:42:04;;;;;;;25.10;13.60;;;;;;;1.55;89.49;102354.52;82411;1260;3027669;-77
2023/01/23 02:44:40;;;;;;;24.30;13.90;;;;;;;1.52;89.38;102358.06;83347;1256;3011438;-75
2023/01/23 02:47:11;;;;;;;28.60;15.10;;;;;;;1.50;89.36;102358.52;83860;1254;3011575;-76
2023/01/23 02:49:47;;;;;;;25.50;14.50;;;;;;;1.51;89.51;102359.21;82575;1264;3025428;-75
2023/01/23 02:52:20;;;;;;;23.80;14.50;;;;;;;1.53;89.73;102357.93;83165;1261;3011297;-75
2023/01/23 02:54:51;;;;;;;25.90;14.80;;;;;;;1.53;89.47;102362.23;83885;1254;3012638;-79
2023/01/23 02:57:23;;;;;;;26.10;14.70;;;;;;;1.53;89.59;102363.60;82653;1259;3026023;-78
2023/01/23 03:02:48;;;;;;;30.40;15.10;;;;;;;1.55;89.74;102365.02;82627;1253;3025677;-76
2023/01/23 03:05:21;;;;;;;29.90;15.80;;;;;;;1.57;89.71;102365.59;82624;1256;3025850;-75
2023/01/23 03:07:52;;;;;;;26.00;14.50;;;;;;;1.61;89.81;102365.20;83934;1256;3013113;-76
2023/01/23 03:10:24;;;;;;;24.60;14.00;;;;;;;1.58;89.63;102364.10;82573;1269;3025805;-76
2023/01/23 03:12:58;;;;;;;24.50;14.70;;;;;;;1.58;89.56;102368.20;83813;1256;3011621;-75
2023/01/23 03:15:33;;;;;;;26.10;15.30;;;;;;;1.59;89.63;102366.88;82635;1256;3025882;-79
2023/01/23 03:18:06;;;;;;;25.70;15.10;;;;;;;1.63;89.84;102371.98;83376;1253;3011564;-78
2023/01/23 03:20:47;;;;;;;25.20;14.30;;;;;;;1.60;89.44;102371.70;83948;1254;3011605;-76
2023/01/23 03:23:20;;;;;;;27.10;15.10;;;;;;;1.56;89.53;102374.00;82601;1256;3025984;-76
2023/01/23 03:25:57;;;;;;;24.30;14.20;;;;;;;1.55;89.56;102377.59;83957;1259;3011553;-75
2023/01/23 03:31:23;;;;;;;26.40;15.00;;;;;;;1.55;89.58;102381.73;82655;1254;3025890;-76
2023/01/23 03:33:54;;;;;;;24.10;14.20;;;;;;;1.55;89.57;102379.83;83924;1256;3011385;-77
2023/01/23 03:36:26;;;;;;;28.70;15.30;;;;;;;1.51;89.37;102375.40;82636;1256;3025120;-78
2023/01/23 03:41:49;;;;;;;25.90;15.00;;;;;;;1.54;89.59;102378.61;82662;1256;3026337;-78
2023/01/23 03:44:20;;;;;;;24.90;14.20;;;;;;;1.56;89.71;102380.88;83971;1253;3011617;-76
2023/01/23 03:46:52;;;;;;;26.00;15.00;;;;;;;1.59;89.78;102383.72;82620;1256;3025344;-74
2023/01/23 03:49:23;;;;;;;25.30;14.30;;;;;;;1.59;89.79;102389.41;83911;1256;3011425;-77
2023/01/23 03:51:59;;;;;;;25.10;14.10;;;;;;;1.58;89.69;102389.53;82634;1256;3025465;-76
2023/01/23 03:54:35;;;;;;;25.40;14.90;;;;;;;1.61;89.78;102396.85;83390;1259;3013103;-76
2023/01/23 03:57:08;;;;;;;23.40;14.40;;;;;;;1.64;89.85;102399.73;82475;1259;3026013;-74
2023/01/23 03:59:39;;;;;;;29.40;15.20;;;;;;;1.66;89.74;102402.86;83900;1254;3011472;-75
2023/01/23 04:02:12;;;;;;;26.60;13.90;;;;;;;1.65;89.71;102403.36;82525;1255;3026506;-75
2023/01/23 04:04:42;;;;;;;24.50;13.70;;;;;;;1.66;89.56;102404.26;83867;1254;3013479;-76
2023/01/23 04:07:15;;;;;;;23.20;14.80;;;;;;;1.66;89.55;102405.79;82640;1256;3024879;-76
2023/01/23 04:09:49;;;;;;;24.10;14.40;;;;;;;1.65;89.33;102405.91;83726;1259;3011958;-75
2023/01/23 04:12:22;;;;;;;29.10;16.80;;;;;;;1.64;89.52;102409.02;82506;1255;3026430;-72
2023/01/23 04:14:59;;;;;;;25.10;14.60;;;;;;;1.66;89.55;102406.98;83224;1255;3011595;-76
2023/01/23 04:17:36;;;;;;;24.80;13.50;;;;;;;1.66;89.62;102411.48;83266;1256;3012906;-77
2023/01/23 04:20:15;;;;;;;25.30;13.90;;;;;;;1.67;89.61;102415.48;83264;1255;3011527;-76
2023/01/23 04:22:53;;;;;;;22.30;14.30;;;;;;;1.69;89.41;102411.75;82498;1275;3027449;-77
2023/01/23 04:25:27;;;;;;;25.30;15.10;;;;;;;1.71;89.42;102405.77;83216;1267;3011743;-76
2023/01/23 04:28:01;;;;;;;25.60;14.70;;;;;;;1.67;89.15;102404.45;82458;1256;3026291;-77
2023/01/23 04:30:32;;;;;;;25.30;14.20;;;;;;;1.62;89.25;102414.27;83771;1255;3012084;-76
2023/01/23 04:33:05;;;;;;;21.70;13.90;;;;;;;1.61;89.35;102412.18;82450;1255;3025735;-76
2023/01/23 04:35:36;;;;;;;23.00;13.80;;;;;;;1.62;89.35;102418.05;83744;1258;3013210;-74
2023/01/23 04:38:08;;;;;;;27.30;14.80;;;;;;;1.63;89.41;102419.79;82454;1255;3025796;-76
2023/01/23 04:40:43;;;;;;;27.40;15.10;;;;;;;1.65;89.48;102422.46;82433;1255;3027528;-76
2023/01/23 04:43:14;;;;;;;29.40;15.70;;;;;;;1.63;89.28;102424.96;83757;1256;3012960;-76
2023/01/23 04:45:51;;;;;;;25.10;14.00;;;;;;;1.61;89.26;102426.10;82495;1255;3027004;-76
2023/01/23 04:48:23;;;;;;;27.20;14.70;;;;;;;1.61;89.40;102420.97;82471;1255;3026297;-76
2023/01/23 04:50:54;;;;;;;25.00;14.30;;;;;;;1.62;89.26;102422.52;83769;1256;3011561;-75
2023/01/23 04:53:31;;;;;;;24.00;14.10;;;;;;;1.62;89.17;102421.68;82417;1258;3026085;-75
2023/01/23 04:56:06;;;;;;;25.00;14.70;;;;;;;1.60;89.16;102427.46;83245;1255;3012823;-76
2023/01/23 04:58:37;;;;;;;26.80;14.90;;;;;;;1.61;89.38;102427.98;83950;1254;3012000;-75
2023/01/23 05:01:12;;;;;;;25.50;14.70;;;;;;;1.59;89.24;102433.45;82656;1253;3025624;-76
2023/01/23 05:03:48;;;;;;;24.20;13.90;;;;;;;1.54;89.24;102429.87;82630;1261;3026101;-76
2023/01/23 05:06:21;;;;;;;24.60;14.50;;;;;;;1.57;89.28;102432.34;83283;1256;3011616;-76
2023/01/23 05:09:04;;;;;;;27.40;15.80;;;;;;;1.54;89.30;102431.23;83328;1257;3011597;-77
2023/01/23 05:11:41;;;;;;;26.00;15.00;;;;;;;1.51;89.24;102438.02;82653;1259;3025647;-75
2023/01/23 05:14:18;;;;;;;28.80;16.00;;;;;;;1.50;89.32;102440.05;82623;1256;3025756;-74
2023/01/23 05:16:57;;;;;;;27.50;15.50;;;;;;;1.53;89.51;102440.48;82528;1258;3026347;-75
2023/01/23 05:19:31;;;;;;;25.60;15.40;;;;;;;1.52;89.28;102439.59;82552;1261;3025390;-76
2023/01/23 05:22:06;;;;;;;26.70;15.80;;;;;;;1.54;89.54;102442.25;82605;1256;3025719;-77
2023/01/23 05:24:38;;;;;;;30.70;16.10;;;;;;;1.57;89.63;102439.05;83895;1259;3011346;-77
2023/01/23 05:27:11;;;;;;;27.50;16.30;;;;;;;1.57;89.59;102436.11;82448;1259;3025333;-75
2023/01/23 05:29:43;;;;;;;24.70;14.30;;;;;;;1.58;89.55;102438.90;83914;1256;3011502;-75
2023/01/23 05:32:16;;;;;;;26.00;15.30;;;;;;;1.56;89.46;102441.42;82577;1256;3026527;-74
2023/01/23 05:34:49;;;;;;;24.50;15.30;;;;;;;1.56;89.47;102442.30;83875;1256;3011661;-76
2023/01/23 05:37:24;;;;;;;28.10;16.20;;;;;;;1.58;89.74;102441.67;82585;1255;3026239;-77
2023/01/23 05:40:01;;;;;;;30.30;16.10;;;;;;;1.61;89.69;102447.44;82452;1260;3026251;-72
2023/01/23 05:42:40;;;;;;;26.80;15.90;;;;;;;1.63;89.73;102453.54;83337;1259;3011835;-75
2023/01/23 05:45:14;;;;;;;28.60;16.20;;;;;;;1.61;89.56;102454.30;82595;1256;3026445;-78
2023/01/23 05:47:46;;;;;;;25.40;14.70;;;;;;;1.59;89.54;102457.02;83903;1254;3011603;-77
2023/01/23 05:50:21;;;;;;;28.60;15.80;;;;;;;1.59;89.50;102461.66;82590;1259;3025202;-76
2023/01/23 05:52:56;;;;;;;28.40;16.10;;;;;;;1.62;89.58;102462.06;82626;1253;3026214;-77
2023/01/23 05:55:32;;;;;;;29.40;16.90;;;;;;;1.63;89.50;102469.70;83924;1259;3011450;-77
2023/01/23 05:58:10;;;;;;;31.40;17.80;;;;;;;1.60;89.41;102477.36;82434;1260;3026728;-77
2023/01/23 06:00:48;;;;;;;29.90;16.00;;;;;;;1.59;89.59;102485.20;82592;1259;3025540;-75
2023/01/23 06:03:23;;;;;;;29.90;15.90;;;;;;;1.60;89.66;102482.16;82443;1259;3025547;-78
2023/01/23 06:05:56;;;;;;;28.70;15.10;;;;;;;1.63;89.54;102484.67;83380;1254;3011468;-77
2023/01/23 06:08:33;;;;;;;33.00;18.00;;;;;;;1.63;89.71;102482.92;83893;1254;3011853;-75
2023/01/23 06:11:07;;;;;;;33.50;16.90;;;;;;;1.62;89.67;102487.73;82519;1256;3027741;-77
2023/01/23 06:13:39;;;;;;;27.50;15.10;;;;;;;1.62;89.61;102490.82;83932;1259;3013247;-74
2023/01/23 06:16:16;;;;;;;30.00;15.30;;;;;;;1.60;89.63;102493.00;82639;1259;3026163;-74
2023/01/23 06:18:50;;;;;;;30.40;16.70;;;;;;;1.62;89.71;102498.74;83928;1254;3013395;-73
2023/01/23 06:21:22;;;;;;;31.20;16.50;;;;;;;1.62;89.66;102505.45;82594;1256;3025522;-75
2023/01/23 06:23:56;;;;;;;30.10;17.60;;;;;;;1.61;89.63;102506.80;83942;1256;3013087;-75
2023/01/23 06:26:29;;;;;;;30.60;16.30;;;;;;;1.62;89.71;102510.77;82635;1256;3026069;-73
2023/01/23 06:29:05;;;;;;;30.10;16.40;;;;;;;1.61;89.53;102518.84;83902;1259;3011709;-75
2023/01/23 06:31:41;;;;;;;27.20;15.90;;;;;;;1.55;89.28;102520.20;82611;1267;3025858;-75
2023/01/23 06:34:15;;;;;;;33.40;17.30;;;;;;;1.54;89.59;102526.54;82604;1254;3026022;-72
2023/01/23 06:36:46;;;;;;;27.10;16.10;;;;;;;1.54;89.47;102533.91;83818;1262;3011482;-76
2023/01/23 06:39:19;;;;;;;29.90;16.50;;;;;;;1.53;89.67;102541.63;82620;1259;3025668;-75
2023/01/23 06:41:55;;;;;;;28.70;16.70;;;;;;;1.55;89.67;102548.57;83775;1259;3011580;-74
2023/01/23 06:44:29;;;;;;;26.30;15.90;;;;;;;1.57;89.66;102552.91;82626;1255;3026080;-75
2023/01/23 06:47:02;;;;;;;27.40;16.20;;;;;;;1.61;89.81;102558.38;83947;1259;3011861;-76
2023/01/23 06:49:40;;;;;;;30.10;17.00;;;;;;;1.62;89.47;102560.31;82608;1259;3024411;-75
2023/01/23 06:52:16;;;;;;;29.60;17.50;;;;;;;1.60;89.51;102562.68;82490;1256;3026252;-74
2023/01/23 06:54:50;;;;;;;30.20;16.70;;;;;;;1.58;89.41;102565.70;83447;1256;3011592;-77
2023/01/23 06:57:23;;;;;;;28.90;15.40;;;;;;;1.57;89.72;102567.55;83952;1257;3012959;-76
2023/01/23 06:59:56;;;;;;;27.70;17.10;;;;;;;1.56;89.38;102565.80;82437;1260;3026644;-74
2023/01/23 07:02:27;;;;;;;26.70;15.50;;;;;;;1.57;89.60;102567.18;83906;1258;3011301;-74
2023/01/23 07:05:04;;;;;;;27.90;16.00;;;;;;;1.55;89.38;102566.13;82602;1259;3025418;-73
2023/01/23 07:07:37;;;;;;;28.90;16.60;;;;;;;1.56;89.48;102564.92;82480;1273;3025574;-74
2023/01/23 07:10:15;;;;;;;28.60;15.50;;;;;;;1.58;89.68;102569.48;83956;1259;3011607;-75
2023/01/23 07:12:55;;;;;;;26.70;15.50;;;;;;;1.56;89.61;102569.06;82629;1259;3025828;-77
2023/01/23 07:15:27;;;;;;;27.70;15.80;;;;;;;1.54;89.52;102572.27;82632;1263;3026241;-75
2023/01/23 07:17:59;;;;;;;31.00;17.20;;;;;;;1.55;89.56;102578.52;83956;1259;3011512;-74
2023/01/23 07:20:35;;;;;;;28.60;17.90;;;;;;;1.57;89.64;102579.77;82628;1256;3024865;-77
2023/01/23 07:23:10;;;;;;;34.00;17.00;;;;;;;1.54;89.59;102579.52;82644;1259;3024783;-77
2023/01/23 07:25:46;;;;;;;30.10;16.70;;;;;;;1.57;89.78;102579.25;82624;1259;3025709;-77
2023/01/23 07:28:20;;;;;;;28.70;16.40;;;;;;;1.61;89.83;102579.73;83731;1259;3012099;-77
2023/01/23 07:30:55;;;;;;;33.00;17.30;;;;;;;1.64;89.64;102582.42;82507;1258;3025457;-77
2023/01/23 07:33:29;;;;;;;44.10;19.40;;;;;;;1.64;89.56;102587.25;83294;1255;3011376;-77
2023/01/23 07:36:06;;;;;;;42.50;20.40;;;;;;;1.64;89.75;102583.47;83912;1259;3011585;-75
2023/01/23 07:38:41;;;;;;;53.60;20.50;;;;;;;1.67;89.87;102581.98;82564;1255;3026227;-76
2023/01/23 07:41:13;;;;;;;40.50;16.50;;;;;;;1.63;89.46;102587.38;81593;1259;3026833;-75
2023/01/23 07:43:45;;;;;;;38.80;17.30;;;;;;;1.62;89.47;102582.52;83775;1262;3011953;-75
2023/01/23 07:46:25;;;;;;;72.30;22.10;;;;;;;1.65;89.71;102583.13;82626;1259;3025456;-77
2023/01/23 07:48:58;;;;;;;58.20;21.90;;;;;;;1.70;89.88;102584.01;82588;1255;3026029;-77
2023/01/23 07:51:30;;;;;;;59.20;22.30;;;;;;;1.74;89.92;102582.25;83762;1257;3011549;-77
2023/01/23 07:54:02;;;;;;;78.00;23.00;;;;;;;1.75;89.76;102586.40;82582;1254;3025474;-77
2023/01/23 07:56:34;;;;;;;58.40;22.80;;;;;;;1.77;89.91;102588.88;83938;1258;3011460;-76
2023/01/23 07:59:13;;;;;;;34.50;17.50;;;;;;;1.79;89.66;102590.66;82428;1258;3027362;-75
2023/01/23 08:01:47;;;;;;;37.70;18.60;;;;;;;1.77;89.58;102592.33;82453;1254;3027183;-77
2023/01/23 08:04:20;;;;;;;33.30;19.20;;;;;;;1.79;89.51;102599.96;83904;1256;3011497;-75
2023/01/23 08:06:55;;;;;;;31.20;17.30;;;;;;;1.77;89.41;102605.23;82570;1256;3025761;-75
2023/01/23 08:09:28;;;;;;;33.80;18.20;;;;;;;1.74;89.21;102605.14;83342;1254;3011388;-74
2023/01/23 08:11:59;;;;;;;31.00;17.30;;;;;;;1.72;89.38;102601.28;83873;1257;3013389;-74
2023/01/23 08:14:32;;;;;;;34.50;18.60;;;;;;;1.75;89.48;102604.98;82622;1259;3025639;-76
2023/01/23 08:17:03;;;;;;;34.10;17.90;;;;;;;1.77;89.50;102605.77;83752;1256;3011623;-78
2023/01/23 08:19:37;;;;;;;37.20;20.60;;;;;;;1.78;89.47;102607.19;82600;1259;3025746;-75
2023/01/23 08:22:08;;;;;;;32.30;18.50;;;;;;;1.77;89.30;102609.20;83911;1259;3011576;-75
2023/01/23 08:24:42;;;;;;;31.50;17.70;;;;;;;1.77;89.59;102607.83;82629;1259;3026635;-74
2023/01/23 08:27:19;;;;;;;31.90;17.60;;;;;;;1.79;89.46;102607.52;83385;1256;3011615;-74
2023/01/23 08:29:53;;;;;;;30.90;17.40;;;;;;;1.80;89.49;102610.66;82652;1254;3026044;-74
2023/01/23 08:32:25;;;;;;;32.30;17.90;;;;;;;1.83;89.44;102618.67;83909;1255;3011607;-74
2023/01/23 08:34:59;;;;;;;33.10;17.80;;;;;;;1.87;89.52;102618.96;82633;1259;3025070;-75
2023/01/23 08:37:36;;;;;;;32.40;18.10;;;;;;;1.87;89.43;102619.83;83471;1277;3013262;-75
2023/01/23 08:40:12;;;;;;;31.90;19.60;;;;;;;1.86;89.34;102628.59;82499;1256;3026121;-74
2023/01/23 08:42:45;;;;;;;32.20;19.30;;;;;;;1.86;89.47;102630.66;82609;1259;3025783;-74
2023/01/23 08:45:21;;;;;;;32.60;18.00;;;;;;;1.87;89.27;102638.62;82602;1255;3026081;-76
2023/01/23 08:47:55;;;;;;;29.30;17.10;;;;;;;1.86;89.25;102639.44;83946;1256;3011748;-77
2023/01/23 08:50:28;;;;;;;33.70;18.60;;;;;;;1.86;89.17;102645.81;82625;1255;3025520;-74
2023/01/23 08:52:59;;;;;;;32.70;19.00;;;;;;;1.86;89.03;102646.33;83937;1268;3011625;-75
2023/01/23 08:55:37;;;;;;;45.30;29.00;;;;;;;1.87;89.19;102652.02;82587;1257;3027580;-74
2023/01/23 08:58:16;;;;;;;36.20;20.50;;;;;;;1.88;89.35;102654.80;82459;1257;3027307;-73
2023/01/23 09:00:51;;;;;;;31.80;17.70;;;;;;;1.90;89.53;102655.59;82628;1256;3026869;-74
2023/01/23 09:03:26;;;;;;;29.10;18.20;;;;;;;1.93;89.27;102650.88;82498;1255;3026051;-76
2023/01/23 09:06:07;;;;;;;30.20;17.90;;;;;;;1.97;89.36;102646.54;83382;1254;3011595;-75
2023/01/23 09:08:40;;;;;;;31.00;18.90;;;;;;;1.95;89.05;102644.56;82617;1259;3026323;-76
2023/01/23 09:11:13;;;;;;;27.50;16.60;;;;;;;1.95;89.19;102646.10;83809;1262;3011535;-74
2023/01/23 09:13:48;;;;;;;32.80;18.40;;;;;;;1.96;89.27;102644.76;82509;1256;3026414;-75
2023/01/23 09:16:21;;;;;;;77.20;42.30;;;;;;;1.97;89.08;102640.52;83258;1256;3011575;-75
2023/01/23 09:18:54;;;;;;;40.80;23.50;;;;;;;1.99;89.14;102640.92;83823;1258;3011593;-74
2023/01/23 09:21:30;;;;;;;31.00;19.40;;;;;;;2.02;88.98;102637.39;82658;1269;3025048;-74
2023/01/23 09:24:03;;;;;;;33.90;19.30;;;;;;;2.00;89.01;102639.23;83889;1259;3011305;-74
2023/01/23 09:26:39;;;;;;;32.30;18.00;;;;;;;2.01;89.13;102634.41;82524;1262;3026116;-76
2023/01/23 09:29:14;;;;;;;31.20;17.40;;;;;;;2.00;89.03;102635.27;82498;1254;3025546;-75
2023/01/23 09:31:50;;;;;;;32.50;17.50;;;;;;;2.00;88.91;102635.77;83375;1259;3011551;-75
2023/01/23 09:34:28;;;;;;;33.00;17.10;;;;;;;2.01;88.97;102629.63;83843;1257;3012710;-75
2023/01/23 09:37:01;;;;;;;35.40;18.30;;;;;;;2.01;88.96;102628.77;82496;1262;3027392;-75
2023/01/23 09:39:33;;;;;;;39.00;19.20;;;;;;;2.03;89.03;102625.21;83938;1259;3011702;-77
2023/01/23 09:42:11;;;;;;;35.90;20.80;;;;;;;2.05;89.11;102623.04;82580;1257;3025675;-76
2023/01/23 09:44:46;;;;;;;53.10;19.70;;;;;;;2.05;89.07;102616.15;82615;1268;3025930;-75
2023/01/23 09:47:28;;;;;;;38.10;18.10;;;;;;;2.03;88.75;102621.58;83356;1258;3011598;-73
2023/01/23 09:50:17;;;;;;;36.00;18.70;;;;;;;2.02;88.81;102623.64;82514;1255;3026304;-76
2023/01/23 09:53:00;;;;;;;33.10;18.70;;;;;;;2.03;88.83;102621.79;82627;1268;3026065;-74
2023/01/23 09:55:47;;;;;;;29.70;18.50;;;;;;;2.07;89.03;102619.50;82638;1264;3026304;-75
2023/01/23 09:58:29;;;;;;;45.00;21.40;;;;;;;2.08;89.02;102619.15;82568;1267;3025526;-75
2023/01/23 10:01:12;;;;;;;41.10;19.80;;;;;;;2.10;89.08;102621.98;82477;1256;3025996;-73
2023/01/23 10:03:53;;;;;;;65.20;22.80;;;;;;;2.13;89.08;102621.91;82595;1257;3026075;-71
2023/01/23 10:06:29;;;;;;;92.70;26.70;;;;;;;2.16;88.98;102626.84;82617;1256;3026755;-73
2023/01/23 10:09:22;;;;;;;45.50;21.70;;;;;;;2.17;88.80;102629.98;82617;1259;3026670;-74
2023/01/23 10:12:11;;;;;;;58.50;21.40;;;;;;;2.18;88.94;102629.33;82594;1259;3025662;-73
2023/01/23 10:15:01;;;;;;;34.00;18.70;;;;;;;2.19;88.92;102630.05;82481;1257;3027134;-75
2023/01/23 10:17:41;;;;;;;30.30;17.20;;;;;;;2.19;88.92;102627.79;82583;1259;3026265;-75
2023/01/23 10:20:32;;;;;;;69.30;22.90;;;;;;;2.21;88.81;102626.81;82661;1259;3026002;-74
2023/01/23 10:23:08;;;;;;;;;;;;;;;2.23;88.82;102626.22;82532;1257;3026218;-74
2023/01/23 10:25:45;;;;;;;50.40;20.60;;;;;;;2.20;88.73;102624.89;83388;1263;3011644;-77
2023/01/23 10:28:24;;;;;;;69.00;24.30;;;;;;;2.19;88.74;102627.10;82473;1254;3025851;-76
2023/01/23 10:31:00;;;;;;;42.30;20.10;;;;;;;2.15;88.59;102627.85;82662;1260;3026096;-76
2023/01/23 10:33:42;;;;;;;32.60;17.70;;;;;;;2.15;88.65;102625.59;82604;1259;3025015;-75
2023/01/23 10:36:22;;;;;;;30.40;17.10;;;;;;;2.16;88.66;102624.77;82580;1255;3025876;-76
2023/01/23 10:39:01;;;;;;;28.80;16.90;;;;;;;2.18;88.64;102629.15;82571;1259;3026137;-77
2023/01/23 10:41:34;;;;;;;29.90;17.90;;;;;;;2.20;88.59;102632.30;82466;1262;3025859;-76
2023/01/23 10:44:25;;;;;;;34.30;22.00;;;;;;;2.19;88.40;102632.11;83894;1259;3011835;-75
2023/01/23 10:47:00;;;;;;;33.30;19.20;;;;;;;2.21;88.62;102630.80;82459;1260;3025921;-76
2023/01/23 10:49:36;;;;;;;31.00;18.30;;;;;;;2.23;88.60;102625.88;83317;1264;3011645;-77
2023/01/23 10:52:34;;;;;;;30.70;18.50;;;;;;;2.27;88.68;102624.13;83317;1254;3012847;-76
2023/01/23 10:55:29;;;;;;;33.40;20.00;;;;;;;2.30;88.70;102620.41;82503;1270;3025400;-74
2023/01/23 10:58:05;;;;;;;37.10;23.30;;;;;;;2.29;88.49;102618.83;82615;1271;3026895;-74
2023/01/23 11:00:44;;;;;;;35.30;20.60;;;;;;;2.29;88.40;102619.34;83941;1259;3011589;-75
2023/01/23 11:03:33;;;;;;;66.20;22.10;;;;;;;2.28;88.36;102621.39;82550;1257;3026625;-75
2023/01/23 11:06:15;;;;;;;36.30;19.60;;;;;;;2.29;88.25;102623.64;82562;1268;3024932;-76
2023/01/23 11:08:57;;;;;;;33.00;19.30;;;;;;;2.30;88.36;102624.38;82590;1259;3025891;-76
2023/01/23 11:11:32;;;;;;;36.60;19.30;;;;;;;2.33;88.18;102622.05;82577;1267;3024996;-74
2023/01/23 11:14:11;;;;;;;38.80;21.10;;;;;;;2.34;88.26;102621.39;83354;1267;3011594;-74
2023/01/23 11:16:46;;;;;;;30.40;18.60;;;;;;;2.33;88.23;102621.73;82684;1260;3026201;-75
2023/01/23 11:19:21;;;;;;;28.10;18.50;;;;;;;2.36;88.31;102622.31;83972;1269;3011550;-75
2023/01/23 11:21:56;;;;;;;31.90;19.30;;;;;;;2.36;88.17;102621.45;82594;1259;3027274;-75
2023/01/23 11:24:37;;;;;;;31.20;20.00;;;;;;;2.36;88.18;102621.11;83378;1260;3011626;-75
2023/01/23 11:27:23;;;;;;;35.20;21.10;;;;;;;2.35;88.04;102620.90;82437;1262;3028391;-74
2023/01/23 11:30:24;;;;;;;34.20;19.60;;;;;;;2.36;88.35;102622.11;82549;1257;3025673;-76
2023/01/23 11:33:01;;;;;;;32.30;18.60;;;;;;;2.33;88.06;102619.31;82563;1255;3025648;-76
2023/01/23 11:35:50;;;;;;;36.10;21.50;;;;;;;2.37;88.19;102620.60;82574;1261;3026375;-73
2023/01/23 11:38:26;;;;;;;35.70;20.60;;;;;;;2.38;87.94;102618.59;82594;1263;3025824;-73
2023/01/23 11:41:13;;;;;;;38.90;22.10;;;;;;;2.35;87.83;102610.23;82609;1259;3025950;-75
2023/01/23 11:43:46;;;;;;;37.20;21.50;;;;;;;2.33;87.96;102603.78;82564;1259;3026269;-74
2023/01/23 11:46:45;;;;;;;37.60;19.90;;;;;;;2.32;87.88;102592.05;83323;1259;3011491;-74
2023/01/23 11:49:30;;;;;;;33.30;20.10;;;;;;;2.35;88.20;102592.31;82591;1255;3026129;-73